sensor_id;sensor_type;location;lat;lon;timestamp;P1;durP1;ratioP1;P2;durP2;ratioP2
37239;SDS011;23130;48.760;9.178;2023-03-31T00:01:06;6.53;;;1.38;;
37239;SDS011;23130;48.760;9.178;2023-03-31T00:03:32;6.03;;;1.25;;
37239;SDS011;23130;48.760;9.178;2023-03-31T00:05:58;7.30;;;1.05;;
37239;SDS011;23130;48.760;9.178;2023-03-31T00:08:25;4.00;;;1.27;;
37239;SDS011;23130;48.760;9.178;2023-03-31T00:10:56;8.90;;;1.60;;
37239;SDS011;23130;48.760;9.178;2023-03-31T00:13:24;5.55;;;1.38;;
37239;SDS011;23130;48.760;9.178;2023-03-31T00:15:55;3.97;;;0.98;;
37239;SDS011;23130;48.760;9.178;2023-03-31T00:18:25;4.55;;;1.48;;
37239;SDS011;23130;48.760;9.178;2023-03-31T00:20:51;7.57;;;1.58;;
37239;SDS011;23130;48.760;9.178;2023-03-31T00:23:18;8.43;;;1.60;;
37239;SDS011;23130;48.760;9.178;2023-03-31T00:25:52;7.18;;;1.73;;
37239;SDS011;23130;48.760;9.178;2023-03-31T00:28:20;6.63;;;1.58;;
37239;SDS011;23130;48.760;9.178;2023-03-31T00:30:46;9.15;;;1.38;;
37239;SDS011;23130;48.760;9.178;2023-03-31T00:33:12;2.70;;;0.95;;
37239;SDS011;23130;48.760;9.178;2023-03-31T00:35:38;6.53;;;1.90;;
37239;SDS011;23130;48.760;9.178;2023-03-31T00:38:04;5.55;;;1.45;;
37239;SDS011;23130;48.760;9.178;2023-03-31T00:40:33;6.05;;;1.50;;
37239;SDS011;23130;48.760;9.178;2023-03-31T00:42:59;5.10;;;1.55;;
37239;SDS011;23130;48.760;9.178;2023-03-31T00:45:28;6.30;;;2.15;;
37239;SDS011;23130;48.760;9.178;2023-03-31T00:48:05;6.63;;;1.58;;
37239;SDS011;23130;48.760;9.178;2023-03-31T00:53:16;8.77;;;1.63;;
37239;SDS011;23130;48.760;9.178;2023-03-31T00:55:46;4.60;;;1.40;;
37239;SDS011;23130;48.760;9.178;2023-03-31T00:58:15;7.60;;;2.08;;
37239;SDS011;23130;48.760;9.178;2023-03-31T01:00:44;6.03;;;2.10;;
37239;SDS011;23130;48.760;9.178;2023-03-31T01:03:16;3.92;;;1.75;;
37239;SDS011;23130;48.760;9.178;2023-03-31T01:08:24;5.95;;;2.45;;
37239;SDS011;23130;48.760;9.178;2023-03-31T01:10:52;6.50;;;2.20;;
37239;SDS011;23130;48.760;9.178;2023-03-31T01:13:24;10.10;;;1.98;;
37239;SDS011;23130;48.760;9.178;2023-03-31T01:15:51;4.80;;;1.35;;
37239;SDS011;23130;48.760;9.178;2023-03-31T01:18:17;5.50;;;1.52;;
37239;SDS011;23130;48.760;9.178;2023-03-31T01:48:18;6.75;;;1.75;;
37239;SDS011;23130;48.760;9.178;2023-03-31T01:57:48;6.28;;;1.90;;
37239;SDS011;23130;48.760;9.178;2023-03-31T02:00:11;5.60;;;1.50;;
37239;SDS011;23130;48.760;9.178;2023-03-31T02:05:15;4.53;;;1.23;;
37239;SDS011;23130;48.760;9.178;2023-03-31T02:07:47;6.38;;;1.48;;
37239;SDS011;23130;48.760;9.178;2023-03-31T02:10:33;4.38;;;1.60;;
37239;SDS011;23130;48.760;9.178;2023-03-31T02:13:00;6.45;;;2.13;;
37239;SDS011;23130;48.760;9.178;2023-03-31T02:15:28;5.03;;;1.73;;
37239;SDS011;23130;48.760;9.178;2023-03-31T02:17:59;6.13;;;1.38;;
37239;SDS011;23130;48.760;9.178;2023-03-31T02:20:30;10.07;;;1.75;;
37239;SDS011;23130;48.760;9.178;2023-03-31T02:22:57;5.30;;;2.30;;
37239;SDS011;23130;48.760;9.178;2023-03-31T02:25:26;7.30;;;1.98;;
37239;SDS011;23130;48.760;9.178;2023-03-31T02:27:56;3.35;;;1.65;;
37239;SDS011;23130;48.760;9.178;2023-03-31T02:30:28;4.50;;;1.35;;
37239;SDS011;23130;48.760;9.178;2023-03-31T02:33:00;7.90;;;2.03;;
37239;SDS011;23130;48.760;9.178;2023-03-31T02:35:29;5.70;;;1.60;;
37239;SDS011;23130;48.760;9.178;2023-03-31T02:37:55;6.03;;;2.00;;
37239;SDS011;23130;48.760;9.178;2023-03-31T02:40:22;5.43;;;1.95;;
37239;SDS011;23130;48.760;9.178;2023-03-31T02:42:51;4.97;;;1.80;;
37239;SDS011;23130;48.760;9.178;2023-03-31T02:48:08;7.15;;;1.70;;
37239;SDS011;23130;48.760;9.178;2023-03-31T02:50:43;6.88;;;1.48;;
37239;SDS011;23130;48.760;9.178;2023-03-31T03:13:32;3.00;;;1.33;;
37239;SDS011;23130;48.760;9.178;2023-03-31T03:16:00;7.60;;;1.85;;
37239;SDS011;23130;48.760;9.178;2023-03-31T03:18:31;4.97;;;1.80;;
37239;SDS011;23130;48.760;9.178;2023-03-31T03:20:57;4.45;;;1.80;;
37239;SDS011;23130;48.760;9.178;2023-03-31T03:23:23;6.70;;;2.47;;
37239;SDS011;23130;48.760;9.178;2023-03-31T03:25:48;5.45;;;2.42;;
37239;SDS011;23130;48.760;9.178;2023-03-31T03:28:15;4.85;;;1.90;;
37239;SDS011;23130;48.760;9.178;2023-03-31T03:30:41;5.60;;;1.70;;
37239;SDS011;23130;48.760;9.178;2023-03-31T03:33:07;6.40;;;2.05;;
37239;SDS011;23130;48.760;9.178;2023-03-31T03:35:33;5.50;;;1.98;;
37239;SDS011;23130;48.760;9.178;2023-03-31T03:37:58;5.82;;;2.08;;
37239;SDS011;23130;48.760;9.178;2023-03-31T03:40:24;3.65;;;1.50;;
37239;SDS011;23130;48.760;9.178;2023-03-31T03:42:50;6.63;;;2.58;;
37239;SDS011;23130;48.760;9.178;2023-03-31T03:45:15;6.25;;;2.03;;
37239;SDS011;23130;48.760;9.178;2023-03-31T03:47:41;4.63;;;2.03;;
37239;SDS011;23130;48.760;9.178;2023-03-31T03:50:07;7.82;;;1.95;;
37239;SDS011;23130;48.760;9.178;2023-03-31T03:52:33;4.72;;;2.05;;
37239;SDS011;23130;48.760;9.178;2023-03-31T03:54:58;7.20;;;1.95;;
37239;SDS011;23130;48.760;9.178;2023-03-31T03:57:25;6.88;;;2.47;;
37239;SDS011;23130;48.760;9.178;2023-03-31T03:59:51;7.10;;;2.33;;
37239;SDS011;23130;48.760;9.178;2023-03-31T04:02:17;4.68;;;2.00;;
37239;SDS011;23130;48.760;9.178;2023-03-31T04:04:42;4.45;;;2.80;;
37239;SDS011;23130;48.760;9.178;2023-03-31T04:07:08;9.70;;;2.85;;
37239;SDS011;23130;48.760;9.178;2023-03-31T04:09:34;8.80;;;1.90;;
37239;SDS011;23130;48.760;9.178;2023-03-31T04:11:59;10.98;;;3.30;;
37239;SDS011;23130;48.760;9.178;2023-03-31T04:14:25;5.43;;;2.03;;
37239;SDS011;23130;48.760;9.178;2023-03-31T04:16:50;7.35;;;2.90;;
37239;SDS011;23130;48.760;9.178;2023-03-31T04:19:16;7.47;;;3.10;;
37239;SDS011;23130;48.760;9.178;2023-03-31T04:21:42;4.18;;;2.13;;
37239;SDS011;23130;48.760;9.178;2023-03-31T04:24:14;7.47;;;2.80;;
37239;SDS011;23130;48.760;9.178;2023-03-31T04:26:45;7.45;;;3.10;;
37239;SDS011;23130;48.760;9.178;2023-03-31T04:29:14;10.10;;;3.45;;
37239;SDS011;23130;48.760;9.178;2023-03-31T04:31:41;4.38;;;2.53;;
37239;SDS011;23130;48.760;9.178;2023-03-31T04:34:11;6.95;;;3.00;;
37239;SDS011;23130;48.760;9.178;2023-03-31T04:36:45;9.98;;;2.58;;
37239;SDS011;23130;48.760;9.178;2023-03-31T04:41:37;4.93;;;2.50;;
37239;SDS011;23130;48.760;9.178;2023-03-31T04:44:03;8.85;;;2.78;;
37239;SDS011;23130;48.760;9.178;2023-03-31T04:46:29;8.20;;;2.85;;
37239;SDS011;23130;48.760;9.178;2023-03-31T04:48:55;8.48;;;2.58;;
37239;SDS011;23130;48.760;9.178;2023-03-31T04:51:21;9.13;;;3.13;;
37239;SDS011;23130;48.760;9.178;2023-03-31T04:53:46;10.07;;;2.92;;
37239;SDS011;23130;48.760;9.178;2023-03-31T04:56:12;6.55;;;3.17;;
37239;SDS011;23130;48.760;9.178;2023-03-31T04:58:37;6.72;;;2.83;;
37239;SDS011;23130;48.760;9.178;2023-03-31T05:01:03;8.88;;;2.95;;
37239;SDS011;23130;48.760;9.178;2023-03-31T05:03:32;8.43;;;3.35;;
37239;SDS011;23130;48.760;9.178;2023-03-31T05:05:59;6.78;;;3.70;;
37239;SDS011;23130;48.760;9.178;2023-03-31T05:08:25;8.27;;;2.75;;
37239;SDS011;23130;48.760;9.178;2023-03-31T05:10:51;5.55;;;2.97;;
37239;SDS011;23130;48.760;9.178;2023-03-31T05:13:17;9.18;;;3.55;;
37239;SDS011;23130;48.760;9.178;2023-03-31T05:15:42;6.80;;;2.97;;
37239;SDS011;23130;48.760;9.178;2023-03-31T05:18:09;6.78;;;3.15;;
37239;SDS011;23130;48.760;9.178;2023-03-31T05:20:35;7.43;;;3.00;;
37239;SDS011;23130;48.760;9.178;2023-03-31T05:23:00;5.93;;;3.03;;
37239;SDS011;23130;48.760;9.178;2023-03-31T05:25:26;8.13;;;3.42;;
37239;SDS011;23130;48.760;9.178;2023-03-31T05:27:56;11.90;;;4.43;;
37239;SDS011;23130;48.760;9.178;2023-03-31T05:30:23;8.27;;;3.72;;
37239;SDS011;23130;48.760;9.178;2023-03-31T05:32:50;9.85;;;4.18;;
37239;SDS011;23130;48.760;9.178;2023-03-31T05:35:16;9.60;;;4.53;;
37239;SDS011;23130;48.760;9.178;2023-03-31T05:37:41;13.65;;;4.65;;
37239;SDS011;23130;48.760;9.178;2023-03-31T05:40:07;9.77;;;3.97;;
37239;SDS011;23130;48.760;9.178;2023-03-31T05:42:33;11.02;;;5.15;;
37239;SDS011;23130;48.760;9.178;2023-03-31T05:45:00;10.70;;;4.78;;
37239;SDS011;23130;48.760;9.178;2023-03-31T05:47:25;11.30;;;4.45;;
37239;SDS011;23130;48.760;9.178;2023-03-31T05:49:51;10.35;;;6.50;;
37239;SDS011;23130;48.760;9.178;2023-03-31T05:52:17;8.63;;;4.68;;
37239;SDS011;23130;48.760;9.178;2023-03-31T05:54:42;12.63;;;4.88;;
37239;SDS011;23130;48.760;9.178;2023-03-31T05:57:08;9.95;;;5.15;;
37239;SDS011;23130;48.760;9.178;2023-03-31T05:59:34;15.07;;;5.90;;
37239;SDS011;23130;48.760;9.178;2023-03-31T06:02:00;11.40;;;5.18;;
37239;SDS011;23130;48.760;9.178;2023-03-31T06:04:27;10.02;;;4.22;;
37239;SDS011;23130;48.760;9.178;2023-03-31T06:06:52;14.55;;;6.22;;
37239;SDS011;23130;48.760;9.178;2023-03-31T06:09:19;8.98;;;5.00;;
37239;SDS011;23130;48.760;9.178;2023-03-31T06:11:45;10.70;;;4.93;;
37239;SDS011;23130;48.760;9.178;2023-03-31T06:14:11;7.68;;;4.93;;
37239;SDS011;23130;48.760;9.178;2023-03-31T06:16:36;9.65;;;5.60;;
37239;SDS011;23130;48.760;9.178;2023-03-31T06:19:02;10.60;;;4.63;;
37239;SDS011;23130;48.760;9.178;2023-03-31T06:21:28;12.75;;;5.00;;
37239;SDS011;23130;48.760;9.178;2023-03-31T06:23:53;10.32;;;4.90;;
37239;SDS011;23130;48.760;9.178;2023-03-31T06:26:22;11.27;;;5.07;;
37239;SDS011;23130;48.760;9.178;2023-03-31T06:28:48;12.70;;;5.22;;
37239;SDS011;23130;48.760;9.178;2023-03-31T06:31:17;13.40;;;5.50;;
37239;SDS011;23130;48.760;9.178;2023-03-31T06:33:45;12.48;;;6.07;;
37239;SDS011;23130;48.760;9.178;2023-03-31T06:36:11;11.80;;;4.90;;
37239;SDS011;23130;48.760;9.178;2023-03-31T06:38:39;8.68;;;5.05;;
37239;SDS011;23130;48.760;9.178;2023-03-31T06:41:06;11.00;;;4.95;;
37239;SDS011;23130;48.760;9.178;2023-03-31T06:43:32;11.10;;;4.82;;
37239;SDS011;23130;48.760;9.178;2023-03-31T06:45:58;13.80;;;5.68;;
37239;SDS011;23130;48.760;9.178;2023-03-31T06:48:25;12.90;;;5.57;;
37239;SDS011;23130;48.760;9.178;2023-03-31T06:50:51;12.02;;;6.32;;
37239;SDS011;23130;48.760;9.178;2023-03-31T06:53:18;14.02;;;6.38;;
37239;SDS011;23130;48.760;9.178;2023-03-31T06:55:43;13.52;;;6.00;;
37239;SDS011;23130;48.760;9.178;2023-03-31T06:58:09;14.38;;;5.57;;
37239;SDS011;23130;48.760;9.178;2023-03-31T07:00:36;16.42;;;5.90;;
37239;SDS011;23130;48.760;9.178;2023-03-31T07:03:02;12.93;;;5.88;;
37239;SDS011;23130;48.760;9.178;2023-03-31T07:05:28;11.85;;;5.15;;
37239;SDS011;23130;48.760;9.178;2023-03-31T07:07:55;8.32;;;4.50;;
37239;SDS011;23130;48.760;9.178;2023-03-31T07:10:23;9.32;;;4.93;;
37239;SDS011;23130;48.760;9.178;2023-03-31T07:12:50;8.38;;;4.28;;
37239;SDS011;23130;48.760;9.178;2023-03-31T07:15:15;10.30;;;4.28;;
37239;SDS011;23130;48.760;9.178;2023-03-31T07:17:41;7.97;;;4.13;;
37239;SDS011;23130;48.760;9.178;2023-03-31T07:20:10;6.55;;;3.20;;
37239;SDS011;23130;48.760;9.178;2023-03-31T07:22:39;9.18;;;3.40;;
37239;SDS011;23130;48.760;9.178;2023-03-31T07:25:06;8.02;;;3.40;;
37239;SDS011;23130;48.760;9.178;2023-03-31T07:27:32;7.10;;;2.83;;
37239;SDS011;23130;48.760;9.178;2023-03-31T07:29:58;7.50;;;3.55;;
37239;SDS011;23130;48.760;9.178;2023-03-31T07:32:23;6.22;;;2.42;;
37239;SDS011;23130;48.760;9.178;2023-03-31T07:34:49;5.43;;;2.28;;
37239;SDS011;23130;48.760;9.178;2023-03-31T07:37:15;4.13;;;2.10;;
37239;SDS011;23130;48.760;9.178;2023-03-31T07:39:40;4.75;;;2.97;;
37239;SDS011;23130;48.760;9.178;2023-03-31T07:42:06;5.05;;;1.60;;
37239;SDS011;23130;48.760;9.178;2023-03-31T07:44:32;3.28;;;2.00;;
37239;SDS011;23130;48.760;9.178;2023-03-31T07:46:59;5.60;;;1.58;;
37239;SDS011;23130;48.760;9.178;2023-03-31T07:49:28;2.35;;;1.23;;
37239;SDS011;23130;48.760;9.178;2023-03-31T07:51:54;2.50;;;1.10;;
37239;SDS011;23130;48.760;9.178;2023-03-31T07:54:20;2.10;;;0.90;;
37239;SDS011;23130;48.760;9.178;2023-03-31T07:56:45;3.00;;;0.93;;
37239;SDS011;23130;48.760;9.178;2023-03-31T07:59:11;2.97;;;1.00;;
37239;SDS011;23130;48.760;9.178;2023-03-31T08:01:36;4.25;;;0.70;;
37239;SDS011;23130;48.760;9.178;2023-03-31T08:04:02;3.72;;;0.73;;
37239;SDS011;23130;48.760;9.178;2023-03-31T08:06:28;1.67;;;0.60;;
37239;SDS011;23130;48.760;9.178;2023-03-31T08:08:54;3.05;;;1.25;;
37239;SDS011;23130;48.760;9.178;2023-03-31T08:11:20;3.28;;;1.70;;
37239;SDS011;23130;48.760;9.178;2023-03-31T08:13:45;1.45;;;0.60;;
37239;SDS011;23130;48.760;9.178;2023-03-31T08:16:11;3.17;;;0.80;;
37239;SDS011;23130;48.760;9.178;2023-03-31T08:18:37;1.38;;;0.50;;
37239;SDS011;23130;48.760;9.178;2023-03-31T08:21:02;1.75;;;0.63;;
37239;SDS011;23130;48.760;9.178;2023-03-31T08:23:28;1.98;;;0.35;;
37239;SDS011;23130;48.760;9.178;2023-03-31T08:25:54;1.20;;;0.30;;
37239;SDS011;23130;48.760;9.178;2023-03-31T08:28:19;0.98;;;0.43;;
37239;SDS011;23130;48.760;9.178;2023-03-31T08:30:45;1.33;;;0.50;;
37239;SDS011;23130;48.760;9.178;2023-03-31T08:33:11;2.22;;;0.68;;
37239;SDS011;23130;48.760;9.178;2023-03-31T08:35:36;1.98;;;0.50;;
37239;SDS011;23130;48.760;9.178;2023-03-31T08:38:02;1.88;;;0.70;;
37239;SDS011;23130;48.760;9.178;2023-03-31T08:40:28;1.83;;;0.45;;
37239;SDS011;23130;48.760;9.178;2023-03-31T08:42:55;2.30;;;0.60;;
37239;SDS011;23130;48.760;9.178;2023-03-31T08:45:44;4.05;;;0.90;;
37239;SDS011;23130;48.760;9.178;2023-03-31T08:56:27;2.15;;;0.82;;
37239;SDS011;23130;48.760;9.178;2023-03-31T08:58:57;2.55;;;0.70;;
37239;SDS011;23130;48.760;9.178;2023-03-31T09:01:43;2.72;;;0.88;;
37239;SDS011;23130;48.760;9.178;2023-03-31T09:09:43;3.17;;;0.90;;
37239;SDS011;23130;48.760;9.178;2023-03-31T09:18:14;3.70;;;0.55;;
37239;SDS011;23130;48.760;9.178;2023-03-31T09:24:34;2.13;;;0.75;;
37239;SDS011;23130;48.760;9.178;2023-03-31T09:26:47;4.45;;;1.13;;
37239;SDS011;23130;48.760;9.178;2023-03-31T09:29:22;4.07;;;0.85;;
37239;SDS011;23130;48.760;9.178;2023-03-31T09:31:51;3.83;;;1.23;;
37239;SDS011;23130;48.760;9.178;2023-03-31T09:34:35;2.55;;;0.60;;
37239;SDS011;23130;48.760;9.178;2023-03-31T09:39:27;1.17;;;0.60;;
37239;SDS011;23130;48.760;9.178;2023-03-31T09:41:52;3.30;;;0.57;;
37239;SDS011;23130;48.760;9.178;2023-03-31T09:46:52;3.20;;;0.55;;
37239;SDS011;23130;48.760;9.178;2023-03-31T09:49:20;6.78;;;0.90;;
37239;SDS011;23130;48.760;9.178;2023-03-31T09:51:51;3.20;;;0.70;;
37239;SDS011;23130;48.760;9.178;2023-03-31T09:54:32;3.88;;;0.93;;
37239;SDS011;23130;48.760;9.178;2023-03-31T09:57:01;2.95;;;0.88;;
37239;SDS011;23130;48.760;9.178;2023-03-31T09:59:33;3.47;;;1.20;;
37239;SDS011;23130;48.760;9.178;2023-03-31T10:02:00;6.57;;;1.27;;
37239;SDS011;23130;48.760;9.178;2023-03-31T10:04:44;4.05;;;0.80;;
37239;SDS011;23130;48.760;9.178;2023-03-31T10:07:11;3.70;;;1.10;;
37239;SDS011;23130;48.760;9.178;2023-03-31T10:09:37;5.80;;;0.95;;
37239;SDS011;23130;48.760;9.178;2023-03-31T10:14:41;5.05;;;0.95;;
37239;SDS011;23130;48.760;9.178;2023-03-31T10:17:12;5.43;;;0.80;;
37239;SDS011;23130;48.760;9.178;2023-03-31T10:19:42;4.38;;;1.13;;
37239;SDS011;23130;48.760;9.178;2023-03-31T10:24:47;5.57;;;2.47;;
37239;SDS011;23130;48.760;9.178;2023-03-31T10:29:50;5.40;;;0.90;;
37239;SDS011;23130;48.760;9.178;2023-03-31T10:32:21;5.63;;;0.80;;
37239;SDS011;23130;48.760;9.178;2023-03-31T10:34:55;6.25;;;0.98;;
37239;SDS011;23130;48.760;9.178;2023-03-31T10:37:25;7.22;;;1.65;;
37239;SDS011;23130;48.760;9.178;2023-03-31T10:39:59;2.70;;;0.90;;
37239;SDS011;23130;48.760;9.178;2023-03-31T10:42:29;7.88;;;1.20;;
37239;SDS011;23130;48.760;9.178;2023-03-31T10:45:09;5.47;;;1.30;;
37239;SDS011;23130;48.760;9.178;2023-03-31T10:47:39;5.63;;;1.38;;
37239;SDS011;23130;48.760;9.178;2023-03-31T10:50:12;3.80;;;1.25;;
37239;SDS011;23130;48.760;9.178;2023-03-31T10:52:43;4.63;;;0.85;;
37239;SDS011;23130;48.760;9.178;2023-03-31T10:55:11;7.28;;;1.42;;
37239;SDS011;23130;48.760;9.178;2023-03-31T11:00:15;2.92;;;0.73;;
37239;SDS011;23130;48.760;9.178;2023-03-31T11:08:14;6.60;;;1.33;;
37239;SDS011;23130;48.760;9.178;2023-03-31T11:19:23;3.53;;;1.17;;
37239;SDS011;23130;48.760;9.178;2023-03-31T11:22:11;4.38;;;1.38;;
37239;SDS011;23130;48.760;9.178;2023-03-31T11:30:29;1.40;;;0.30;;
37239;SDS011;23130;48.760;9.178;2023-03-31T11:33:30;2.33;;;0.70;;
37239;SDS011;23130;48.760;9.178;2023-03-31T11:38:57;1.60;;;0.20;;
37239;SDS011;23130;48.760;9.178;2023-03-31T11:41:58;1.17;;;0.20;;
37239;SDS011;23130;48.760;9.178;2023-03-31T11:44:23;1.73;;;0.30;;
37239;SDS011;23130;48.760;9.178;2023-03-31T11:46:55;1.67;;;0.30;;
37239;SDS011;23130;48.760;9.178;2023-03-31T11:49:29;2.35;;;0.65;;
37239;SDS011;23130;48.760;9.178;2023-03-31T11:52:19;1.17;;;0.30;;
37239;SDS011;23130;48.760;9.178;2023-03-31T11:57:35;1.95;;;0.20;;
37239;SDS011;23130;48.760;9.178;2023-03-31T12:00:11;1.27;;;0.10;;
37239;SDS011;23130;48.760;9.178;2023-03-31T12:03:18;1.38;;;0.20;;
37239;SDS011;23130;48.760;9.178;2023-03-31T12:05:52;1.70;;;0.10;;
37239;SDS011;23130;48.760;9.178;2023-03-31T12:08:28;1.45;;;0.30;;
37239;SDS011;23130;48.760;9.178;2023-03-31T12:11:11;0.55;;;0.20;;
37239;SDS011;23130;48.760;9.178;2023-03-31T12:13:48;0.40;;;0.10;;
37239;SDS011;23130;48.760;9.178;2023-03-31T12:16:20;1.25;;;0.10;;
37239;SDS011;23130;48.760;9.178;2023-03-31T12:24:35;0.32;;;0.10;;
37239;SDS011;23130;48.760;9.178;2023-03-31T12:27:07;1.63;;;0.60;;
37239;SDS011;23130;48.760;9.178;2023-03-31T12:29:45;1.88;;;0.30;;
37239;SDS011;23130;48.760;9.178;2023-03-31T12:32:19;1.20;;;0.28;;
37239;SDS011;23130;48.760;9.178;2023-03-31T12:34:50;0.90;;;0.20;;
37239;SDS011;23130;48.760;9.178;2023-03-31T12:40:15;1.73;;;0.20;;
37239;SDS011;23130;48.760;9.178;2023-03-31T12:53:10;0.65;;;0.20;;
37239;SDS011;23130;48.760;9.178;2023-03-31T12:55:58;1.23;;;0.40;;
37239;SDS011;23130;48.760;9.178;2023-03-31T13:01:15;4.93;;;0.70;;
37239;SDS011;23130;48.760;9.178;2023-03-31T13:08:54;2.70;;;0.68;;
37239;SDS011;23130;48.760;9.178;2023-03-31T13:16:53;2.40;;;0.50;;
37239;SDS011;23130;48.760;9.178;2023-03-31T13:19:35;3.15;;;0.80;;
37239;SDS011;23130;48.760;9.178;2023-03-31T13:22:03;4.60;;;0.68;;
37239;SDS011;23130;48.760;9.178;2023-03-31T13:24:30;6.85;;;1.20;;
37239;SDS011;23130;48.760;9.178;2023-03-31T13:26:58;2.97;;;0.50;;
37239;SDS011;23130;48.760;9.178;2023-03-31T13:29:59;3.53;;;0.70;;
37239;SDS011;23130;48.760;9.178;2023-03-31T13:32:24;1.23;;;0.30;;
37239;SDS011;23130;48.760;9.178;2023-03-31T13:40:50;0.70;;;0.20;;
37239;SDS011;23130;48.760;9.178;2023-03-31T13:43:30;3.85;;;0.35;;
37239;SDS011;23130;48.760;9.178;2023-03-31T13:48:47;1.73;;;0.17;;
37239;SDS011;23130;48.760;9.178;2023-03-31T14:08:28;0.28;;;0.10;;
37239;SDS011;23130;48.760;9.178;2023-03-31T14:25:14;3.45;;;0.30;;
37239;SDS011;23130;48.760;9.178;2023-03-31T14:30:32;1.55;;;0.10;;
37239;SDS011;23130;48.760;9.178;2023-03-31T14:36:12;1.17;;;0.10;;
37239;SDS011;23130;48.760;9.178;2023-03-31T14:38:53;1.38;;;0.20;;
37239;SDS011;23130;48.760;9.178;2023-03-31T14:41:25;1.58;;;0.25;;
37239;SDS011;23130;48.760;9.178;2023-03-31T14:43:53;0.40;;;0.10;;
37239;SDS011;23130;48.760;9.178;2023-03-31T14:46:21;1.98;;;0.30;;
37239;SDS011;23130;48.760;9.178;2023-03-31T14:48:48;2.45;;;0.40;;
37239;SDS011;23130;48.760;9.178;2023-03-31T14:51:16;1.20;;;0.20;;
37239;SDS011;23130;48.760;9.178;2023-03-31T14:53:47;1.92;;;0.20;;
37239;SDS011;23130;48.760;9.178;2023-03-31T14:56:20;3.03;;;0.30;;
37239;SDS011;23130;48.760;9.178;2023-03-31T14:58:52;1.38;;;0.10;;
37239;SDS011;23130;48.760;9.178;2023-03-31T15:01:20;2.45;;;0.32;;
37239;SDS011;23130;48.760;9.178;2023-03-31T15:03:52;1.45;;;0.25;;
37239;SDS011;23130;48.760;9.178;2023-03-31T15:06:19;0.55;;;0.10;;
37239;SDS011;23130;48.760;9.178;2023-03-31T15:08:49;1.17;;;0.40;;
37239;SDS011;23130;48.760;9.178;2023-03-31T15:11:19;1.95;;;0.17;;
37239;SDS011;23130;48.760;9.178;2023-03-31T15:13:46;1.63;;;0.43;;
37239;SDS011;23130;48.760;9.178;2023-03-31T15:19:20;1.38;;;0.20;;
37239;SDS011;23130;48.760;9.178;2023-03-31T15:24:26;1.60;;;0.55;;
37239;SDS011;23130;48.760;9.178;2023-03-31T15:26:56;1.60;;;0.28;;
37239;SDS011;23130;48.760;9.178;2023-03-31T15:32:30;0.95;;;0.25;;
37239;SDS011;23130;48.760;9.178;2023-03-31T15:34:59;2.17;;;0.30;;
37239;SDS011;23130;48.760;9.178;2023-03-31T15:37:38;1.40;;;0.30;;
37239;SDS011;23130;48.760;9.178;2023-03-31T15:40:25;1.20;;;0.35;;
37239;SDS011;23130;48.760;9.178;2023-03-31T15:43:13;1.23;;;0.20;;
37239;SDS011;23130;48.760;9.178;2023-03-31T15:45:49;2.22;;;0.40;;
37239;SDS011;23130;48.760;9.178;2023-03-31T15:50:53;3.10;;;0.60;;
37239;SDS011;23130;48.760;9.178;2023-03-31T15:55:54;1.88;;;0.65;;
37239;SDS011;23130;48.760;9.178;2023-03-31T15:58:24;3.38;;;0.43;;
37239;SDS011;23130;48.760;9.178;2023-03-31T16:01:10;1.33;;;0.25;;
37239;SDS011;23130;48.760;9.178;2023-03-31T16:03:39;2.55;;;0.38;;
37239;SDS011;23130;48.760;9.178;2023-03-31T16:08:47;2.75;;;0.40;;
37239;SDS011;23130;48.760;9.178;2023-03-31T16:11:24;1.95;;;0.40;;
37239;SDS011;23130;48.760;9.178;2023-03-31T16:13:57;3.00;;;0.68;;
37239;SDS011;23130;48.760;9.178;2023-03-31T16:16:25;1.08;;;0.30;;
37239;SDS011;23130;48.760;9.178;2023-03-31T16:18:53;2.72;;;0.80;;
37239;SDS011;23130;48.760;9.178;2023-03-31T16:21:28;1.58;;;0.40;;
37239;SDS011;23130;48.760;9.178;2023-03-31T16:23:59;6.07;;;0.40;;
37239;SDS011;23130;48.760;9.178;2023-03-31T16:26:26;2.78;;;0.50;;
37239;SDS011;23130;48.760;9.178;2023-03-31T16:28:53;3.92;;;1.33;;
37239;SDS011;23130;48.760;9.178;2023-03-31T16:31:28;2.10;;;0.55;;
37239;SDS011;23130;48.760;9.178;2023-03-31T16:33:58;2.30;;;0.50;;
37239;SDS011;23130;48.760;9.178;2023-03-31T16:36:24;1.90;;;0.30;;
37239;SDS011;23130;48.760;9.178;2023-03-31T16:38:50;2.13;;;0.40;;
37239;SDS011;23130;48.760;9.178;2023-03-31T16:41:17;2.45;;;0.50;;
37239;SDS011;23130;48.760;9.178;2023-03-31T16:43:43;1.25;;;0.20;;
37239;SDS011;23130;48.760;9.178;2023-03-31T16:46:09;1.08;;;0.20;;
37239;SDS011;23130;48.760;9.178;2023-03-31T16:48:35;0.90;;;0.40;;
37239;SDS011;23130;48.760;9.178;2023-03-31T16:51:01;1.33;;;0.20;;
37239;SDS011;23130;48.760;9.178;2023-03-31T16:53:27;0.90;;;0.20;;
37239;SDS011;23130;48.760;9.178;2023-03-31T16:56:01;2.00;;;0.20;;
37239;SDS011;23130;48.760;9.178;2023-03-31T16:58:27;1.65;;;0.20;;
37239;SDS011;23130;48.760;9.178;2023-03-31T17:00:54;1.77;;;0.10;;
37239;SDS011;23130;48.760;9.178;2023-03-31T17:03:21;2.17;;;0.32;;
37239;SDS011;23130;48.760;9.178;2023-03-31T17:05:48;1.35;;;0.20;;
37239;SDS011;23130;48.760;9.178;2023-03-31T17:08:17;1.77;;;0.30;;
37239;SDS011;23130;48.760;9.178;2023-03-31T17:10:51;1.80;;;0.30;;
37239;SDS011;23130;48.760;9.178;2023-03-31T17:13:18;1.52;;;0.20;;
37239;SDS011;23130;48.760;9.178;2023-03-31T17:15:45;0.88;;;0.30;;
37239;SDS011;23130;48.760;9.178;2023-03-31T17:18:10;1.52;;;0.40;;
37239;SDS011;23130;48.760;9.178;2023-03-31T17:20:36;2.05;;;0.52;;
37239;SDS011;23130;48.760;9.178;2023-03-31T17:23:02;1.05;;;0.30;;
37239;SDS011;23130;48.760;9.178;2023-03-31T17:25:28;4.63;;;0.57;;
37239;SDS011;23130;48.760;9.178;2023-03-31T17:27:54;1.20;;;0.32;;
37239;SDS011;23130;48.760;9.178;2023-03-31T17:30:20;2.70;;;0.40;;
37239;SDS011;23130;48.760;9.178;2023-03-31T17:32:47;0.88;;;0.28;;
37239;SDS011;23130;48.760;9.178;2023-03-31T17:35:12;3.55;;;0.50;;
37239;SDS011;23130;48.760;9.178;2023-03-31T17:37:44;2.13;;;0.60;;
37239;SDS011;23130;48.760;9.178;2023-03-31T17:40:10;2.60;;;0.30;;
37239;SDS011;23130;48.760;9.178;2023-03-31T17:42:37;1.50;;;0.60;;
37239;SDS011;23130;48.760;9.178;2023-03-31T17:45:03;2.55;;;0.30;;
37239;SDS011;23130;48.760;9.178;2023-03-31T17:47:29;1.83;;;0.43;;
37239;SDS011;23130;48.760;9.178;2023-03-31T17:49:56;1.67;;;0.50;;
37239;SDS011;23130;48.760;9.178;2023-03-31T17:52:22;4.53;;;0.52;;
37239;SDS011;23130;48.760;9.178;2023-03-31T17:54:48;4.13;;;0.57;;
37239;SDS011;23130;48.760;9.178;2023-03-31T17:57:15;3.17;;;0.50;;
37239;SDS011;23130;48.760;9.178;2023-03-31T17:59:41;2.60;;;0.73;;
37239;SDS011;23130;48.760;9.178;2023-03-31T18:02:09;4.65;;;0.70;;
37239;SDS011;23130;48.760;9.178;2023-03-31T18:04:37;3.15;;;0.57;;
37239;SDS011;23130;48.760;9.178;2023-03-31T18:07:02;4.55;;;0.60;;
37239;SDS011;23130;48.760;9.178;2023-03-31T18:09:28;0.93;;;0.22;;
37239;SDS011;23130;48.760;9.178;2023-03-31T18:11:53;3.13;;;0.93;;
37239;SDS011;23130;48.760;9.178;2023-03-31T18:14:19;2.25;;;0.55;;
37239;SDS011;23130;48.760;9.178;2023-03-31T18:16:45;1.88;;;0.63;;
37239;SDS011;23130;48.760;9.178;2023-03-31T18:19:10;3.28;;;0.70;;
37239;SDS011;23130;48.760;9.178;2023-03-31T18:21:36;2.30;;;0.57;;
37239;SDS011;23130;48.760;9.178;2023-03-31T18:24:02;3.40;;;0.80;;
37239;SDS011;23130;48.760;9.178;2023-03-31T18:26:28;3.15;;;0.90;;
37239;SDS011;23130;48.760;9.178;2023-03-31T18:28:53;1.33;;;0.38;;
37239;SDS011;23130;48.760;9.178;2023-03-31T18:31:19;2.45;;;0.50;;
37239;SDS011;23130;48.760;9.178;2023-03-31T18:33:48;2.88;;;0.50;;
37239;SDS011;23130;48.760;9.178;2023-03-31T18:36:16;3.78;;;0.68;;
37239;SDS011;23130;48.760;9.178;2023-03-31T18:38:44;2.38;;;0.52;;
37239;SDS011;23130;48.760;9.178;2023-03-31T18:41:11;3.92;;;0.70;;
37239;SDS011;23130;48.760;9.178;2023-03-31T18:43:37;2.78;;;0.57;;